createdAt,value
2018-09-17T00:02:01.385Z,101659.00
2018-09-17T00:04:30.308Z,101652.00
2018-09-17T00:06:59.122Z,101666.00
2018-09-17T00:09:27.962Z,101655.00
2018-09-17T00:11:56.792Z,101661.00
2018-09-17T00:14:26.041Z,101664.00
2018-09-17T00:16:54.915Z,101665.00
2018-09-17T00:19:23.757Z,101659.00
2018-09-17T00:21:52.578Z,101660.00
2018-09-17T00:24:21.394Z,101660.00
2018-09-17T00:26:50.184Z,101662.00
2018-09-17T00:29:19.391Z,101656.00
2018-09-17T00:31:48.189Z,101660.00
2018-09-17T00:34:17.010Z,101661.00
2018-09-17T00:36:45.922Z,101651.00
2018-09-17T00:39:14.748Z,101660.00
2018-09-17T00:41:43.566Z,101662.00
2018-09-17T00:44:12.382Z,101655.00
2018-09-17T00:46:41.370Z,101662.00
2018-09-17T00:49:10.158Z,101656.00
2018-09-17T00:51:38.984Z,101668.00
2018-09-17T00:54:07.775Z,101663.00
2018-09-17T00:56:36.579Z,101664.00
2018-09-17T00:59:05.767Z,101649.00
2018-09-17T01:01:34.566Z,101653.00
2018-09-17T01:04:03.401Z,101659.00
2018-09-17T01:06:32.228Z,101659.00
2018-09-17T01:09:01.032Z,101664.00
2018-09-17T01:11:29.854Z,101657.00
2018-09-17T01:13:58.746Z,101652.00
2018-09-17T01:16:27.528Z,101658.00
2018-09-17T01:18:56.401Z,101659.00
2018-09-17T01:21:25.449Z,101653.00
2018-09-17T01:23:54.238Z,101637.00
2018-09-17T01:26:23.051Z,101640.00
2018-09-17T01:28:51.890Z,101637.00
2018-09-17T01:31:21.154Z,101631.00
2018-09-17T01:33:50.034Z,101640.00
2018-09-17T01:36:18.864Z,101646.00
2018-09-17T01:38:47.667Z,101645.00
2018-09-17T01:41:16.547Z,101652.00
2018-09-17T01:43:45.476Z,101651.00
2018-09-17T01:46:14.351Z,101663.00
2018-09-17T01:48:43.109Z,101659.00
2018-09-17T01:51:11.953Z,101653.00
2018-09-17T01:53:40.813Z,101650.00
2018-09-17T01:56:09.582Z,101649.00
2018-09-17T01:58:38.439Z,101651.00
2018-09-17T02:01:07.738Z,101661.00
2018-09-17T02:03:36.567Z,101653.00
2018-09-17T02:06:06.638Z,101655.00
2018-09-17T02:08:35.633Z,101656.00
2018-09-17T02:11:04.392Z,101663.00
2018-09-17T02:13:33.282Z,101662.00
2018-09-17T02:16:02.112Z,101661.00
2018-09-17T02:18:30.912Z,101657.00
2018-09-17T02:20:59.726Z,101665.00
2018-09-17T02:23:28.541Z,101669.00
2018-09-17T02:25:57.346Z,101661.00
2018-09-17T02:28:26.859Z,101672.00
2018-09-17T02:30:55.664Z,101662.00
2018-09-17T02:33:25.659Z,101670.00
2018-09-17T02:35:54.462Z,101671.00
2018-09-17T02:38:23.262Z,101672.00
2018-09-17T02:40:52.063Z,101668.00
2018-09-17T02:43:20.883Z,101661.00
2018-09-17T02:45:49.749Z,101669.00
2018-09-17T02:48:18.603Z,101673.00
2018-09-17T02:50:47.623Z,101672.00
2018-09-17T02:53:16.439Z,101661.00
2018-09-17T02:55:45.273Z,101658.00
2018-09-17T02:58:14.089Z,101648.00
2018-09-17T03:00:42.883Z,101644.00
2018-09-17T03:03:11.690Z,101653.00
2018-09-17T03:05:40.554Z,101654.00
2018-09-17T03:10:49.272Z,101645.00
2018-09-17T03:13:18.092Z,101641.00
2018-09-17T03:15:55.780Z,101631.00
2018-09-17T03:18:41.930Z,101635.00
2018-09-17T03:21:10.776Z,101641.00
2018-09-17T03:23:39.579Z,101636.00
2018-09-17T03:26:08.395Z,101643.00
2018-09-17T03:28:37.609Z,101636.00
2018-09-17T03:31:06.430Z,101650.00
2018-09-17T03:33:35.665Z,101647.00
2018-09-17T03:36:04.491Z,101652.00
2018-09-17T03:38:41.579Z,101642.00
2018-09-17T03:41:11.193Z,101657.00
2018-09-17T03:43:41.384Z,101654.00
2018-09-17T03:46:10.205Z,101659.00
2018-09-17T03:48:40.005Z,101654.00
2018-09-17T03:51:09.406Z,101647.00
2018-09-17T03:53:38.398Z,101649.00
2018-09-17T03:56:07.222Z,101658.00
2018-09-17T03:58:35.998Z,101659.00
2018-09-17T04:01:05.070Z,101667.00
2018-09-17T04:03:33.937Z,101663.00
2018-09-17T04:06:02.822Z,101658.00
2018-09-17T04:08:32.602Z,101655.00
2018-09-17T04:11:01.587Z,101654.00
2018-09-17T04:13:30.479Z,101641.00
2018-09-17T04:15:59.269Z,101653.00
2018-09-17T04:18:28.145Z,101653.00
2018-09-17T04:20:56.946Z,101639.00
2018-09-17T04:23:29.911Z,101658.00
2018-09-17T04:25:58.811Z,101659.00
2018-09-17T04:28:27.630Z,101663.00
2018-09-17T04:30:56.928Z,101662.00
2018-09-17T04:33:26.291Z,101660.00
2018-09-17T04:35:55.475Z,101658.00
2018-09-17T04:38:24.364Z,101655.00
2018-09-17T04:40:53.319Z,101649.00
2018-09-17T04:43:25.004Z,101653.00
2018-09-17T04:45:53.835Z,101652.00
2018-09-17T04:48:22.613Z,101656.00
2018-09-17T04:50:51.409Z,101654.00
2018-09-17T04:53:20.322Z,101644.00
2018-09-17T04:55:49.138Z,101643.00
2018-09-17T04:58:17.953Z,101642.00
2018-09-17T05:00:46.816Z,101650.00
2018-09-17T05:03:15.699Z,101652.00
2018-09-17T05:05:44.547Z,101654.00
2018-09-17T05:08:13.354Z,101652.00
2018-09-17T05:10:42.189Z,101648.00
2018-09-17T05:13:11.184Z,101652.00
2018-09-17T05:15:39.999Z,101644.00
2018-09-17T05:18:08.843Z,101646.00
2018-09-17T05:20:37.666Z,101642.00
2018-09-17T05:23:06.466Z,101645.00
2018-09-17T05:25:35.272Z,101647.00
2018-09-17T05:28:04.130Z,101640.00
2018-09-17T05:30:32.934Z,101656.00
2018-09-17T05:33:01.722Z,101637.00
2018-09-17T05:35:30.521Z,101640.00
2018-09-17T05:38:00.123Z,101639.00
2018-09-17T05:40:28.950Z,101644.00
2018-09-17T05:42:57.731Z,101641.00
2018-09-17T05:45:26.665Z,101654.00
2018-09-17T05:47:55.511Z,101646.00
2018-09-17T05:50:24.333Z,101640.00
2018-09-17T05:52:53.157Z,101641.00
2018-09-17T05:55:22.024Z,101638.00
2018-09-17T05:57:50.905Z,101637.00
2018-09-17T06:00:20.146Z,101645.00
2018-09-17T06:02:49.023Z,101638.00
2018-09-17T06:05:17.894Z,101644.00
2018-09-17T06:07:46.765Z,101641.00
2018-09-17T06:10:16.642Z,101649.00
2018-09-17T06:12:47.171Z,101650.00
2018-09-17T06:15:16.346Z,101656.00
2018-09-17T06:17:45.190Z,101656.00
2018-09-17T06:20:14.558Z,101659.00
2018-09-17T06:22:43.381Z,101664.00
2018-09-17T06:25:12.218Z,101664.00
2018-09-17T06:27:41.094Z,101659.00
2018-09-17T06:30:09.899Z,101673.00
2018-09-17T06:32:38.728Z,101668.00
2018-09-17T06:35:08.815Z,101672.00
2018-09-17T06:37:37.660Z,101665.00
2018-09-17T06:40:10.362Z,101667.00
2018-09-17T06:42:39.218Z,101669.00
2018-09-17T06:45:08.863Z,101661.00
2018-09-17T06:47:37.698Z,101670.00
2018-09-17T06:50:07.938Z,101668.00
2018-09-17T06:52:36.746Z,101661.00
2018-09-17T06:55:05.605Z,101661.00
2018-09-17T06:57:34.406Z,101669.00
2018-09-17T07:00:03.287Z,101674.00
2018-09-17T07:02:32.811Z,101677.00
2018-09-17T07:05:01.731Z,101691.00
2018-09-17T07:07:30.529Z,101682.00
2018-09-17T07:09:59.404Z,101688.00
2018-09-17T07:12:28.222Z,101680.00
2018-09-17T07:14:57.057Z,101685.00
2018-09-17T07:17:25.895Z,101691.00
2018-09-17T07:19:54.705Z,101699.00
2018-09-17T07:22:23.546Z,101693.00
2018-09-17T07:24:53.078Z,101704.00
2018-09-17T07:27:21.891Z,101698.00
2018-09-17T07:29:50.760Z,101692.00
2018-09-17T07:32:19.591Z,101691.00
2018-09-17T07:34:49.269Z,101692.00
2018-09-17T07:37:18.106Z,101685.00
2018-09-17T07:39:46.947Z,101697.00
2018-09-17T07:42:16.527Z,101694.00
2018-09-17T07:44:45.336Z,101690.00
2018-09-17T07:47:14.551Z,101687.00
2018-09-17T07:49:43.382Z,101692.00
2018-09-17T07:52:12.182Z,101689.00
2018-09-17T07:54:40.979Z,101692.00
2018-09-17T07:57:09.826Z,101685.00
2018-09-17T07:59:38.892Z,101684.00
2018-09-17T08:02:07.741Z,101693.00
2018-09-17T08:04:36.543Z,101682.00
2018-09-17T08:07:06.100Z,101699.00
2018-09-17T08:09:35.272Z,101698.00
2018-09-17T08:12:04.100Z,101706.00
2018-09-17T08:14:32.934Z,101701.00
2018-09-17T08:17:01.809Z,101699.00
2018-09-17T08:19:30.574Z,101704.00
2018-09-17T08:21:59.381Z,101701.00
2018-09-17T08:24:28.254Z,101692.00
2018-09-17T08:26:57.062Z,101693.00
2018-09-17T08:29:25.876Z,101691.00
2018-09-17T08:31:55.295Z,101697.00
2018-09-17T08:34:24.110Z,101695.00
2018-09-17T08:36:52.936Z,101702.00
2018-09-17T08:39:21.782Z,101690.00
2018-09-17T08:41:50.607Z,101698.00
2018-09-17T08:44:19.853Z,101696.00
2018-09-17T08:46:48.661Z,101693.00
2018-09-17T08:49:17.520Z,101693.00
2018-09-17T08:51:46.441Z,101697.00
2018-09-17T08:54:15.727Z,101704.00
2018-09-17T08:56:45.754Z,101700.00
2018-09-17T09:00:23.625Z,101705.00
2018-09-17T09:02:56.605Z,101711.00
2018-09-17T09:05:30.903Z,101716.00
2018-09-17T09:07:59.695Z,101711.00
2018-09-17T09:10:34.362Z,101703.00
2018-09-17T09:13:09.207Z,101712.00
2018-09-17T09:15:39.101Z,101719.00
2018-09-17T09:18:08.765Z,101713.00
2018-09-17T09:20:40.602Z,101706.00
2018-09-17T09:23:09.459Z,101711.00
2018-09-17T09:25:38.285Z,101716.00
2018-09-17T09:28:07.767Z,101719.00
2018-09-17T09:30:36.607Z,101717.00
2018-09-17T09:33:05.393Z,101717.00
2018-09-17T09:35:34.191Z,101714.00
2018-09-17T09:38:03.099Z,101716.00
2018-09-17T09:40:31.897Z,101705.00
2018-09-17T09:43:00.745Z,101710.00
2018-09-17T09:45:29.920Z,101701.00
2018-09-17T09:47:58.752Z,101698.00
2018-09-17T09:50:28.085Z,101692.00
2018-09-17T09:52:56.891Z,101692.00
2018-09-17T09:55:25.704Z,101689.00
2018-09-17T09:57:54.600Z,101693.00
2018-09-17T10:00:28.855Z,101682.00
2018-09-17T10:03:02.599Z,101673.00
2018-09-17T10:05:31.517Z,101685.00
2018-09-17T10:08:00.345Z,101667.00
2018-09-17T10:10:34.769Z,101671.00
2018-09-17T10:13:08.795Z,101673.00
2018-09-17T10:15:43.003Z,101673.00
2018-09-17T10:18:17.309Z,101666.00
2018-09-17T10:20:46.145Z,101669.00
2018-09-17T10:23:14.977Z,101665.00
2018-09-17T10:25:43.826Z,101666.00
2018-09-17T10:28:13.209Z,101654.00
2018-09-17T10:30:42.083Z,101649.00
2018-09-17T10:33:10.881Z,101657.00
2018-09-17T10:35:39.729Z,101652.00
2018-09-17T10:38:08.637Z,101645.00
2018-09-17T10:40:37.494Z,101643.00
2018-09-17T10:43:06.509Z,101646.00
2018-09-17T10:45:35.725Z,101649.00
2018-09-17T10:48:04.546Z,101649.00
2018-09-17T10:50:33.861Z,101643.00
2018-09-17T10:53:02.678Z,101638.00
2018-09-17T10:55:31.498Z,101636.00
2018-09-17T10:58:00.345Z,101632.00
2018-09-17T11:00:29.151Z,101633.00
2018-09-17T11:02:57.997Z,101627.00
2018-09-17T11:05:26.846Z,101627.00
2018-09-17T11:07:55.658Z,101630.00
2018-09-17T11:10:24.493Z,101623.00
2018-09-17T11:12:53.642Z,101612.00
2018-09-17T11:15:26.678Z,101593.00
2018-09-17T11:17:55.525Z,101608.00
2018-09-17T11:20:24.331Z,101612.00
2018-09-17T11:22:53.135Z,101607.00
2018-09-17T11:25:21.968Z,101612.00
2018-09-17T11:27:50.796Z,101615.00
2018-09-17T11:30:19.687Z,101607.00
2018-09-17T11:32:49.475Z,101606.00
2018-09-17T11:35:18.288Z,101599.00
2018-09-17T11:37:47.510Z,101607.00
2018-09-17T11:40:16.343Z,101605.00
2018-09-17T11:42:45.199Z,101605.00
2018-09-17T11:45:14.014Z,101593.00
2018-09-17T11:47:43.323Z,101595.00
2018-09-17T11:50:12.196Z,101607.00
2018-09-17T11:52:41.036Z,101598.00
2018-09-17T11:55:10.330Z,101603.00
2018-09-17T11:57:39.269Z,101593.00
2018-09-17T12:00:08.616Z,101590.00
2018-09-17T12:02:37.848Z,101586.00
2018-09-17T12:05:08.855Z,101576.00
2018-09-17T12:07:40.510Z,101570.00
2018-09-17T12:10:09.822Z,101570.00
2018-09-17T12:12:39.220Z,101573.00
2018-09-17T12:15:09.611Z,101565.00
2018-09-17T12:17:38.457Z,101563.00
2018-09-17T12:20:08.843Z,101573.00
2018-09-17T12:22:37.681Z,101567.00
2018-09-17T12:25:07.618Z,101566.00
2018-09-17T12:27:36.405Z,101561.00
2018-09-17T12:30:05.258Z,101562.00
2018-09-17T12:32:34.124Z,101549.00
2018-09-17T12:35:02.953Z,101559.00
2018-09-17T12:37:32.005Z,101551.00
2018-09-17T12:40:00.838Z,101556.00
2018-09-17T12:42:29.679Z,101555.00
2018-09-17T12:44:58.543Z,101549.00
2018-09-17T12:47:30.163Z,101550.00
2018-09-17T12:49:59.551Z,101545.00
2018-09-17T12:52:28.375Z,101543.00
2018-09-17T12:54:57.214Z,101542.00
2018-09-17T12:57:26.372Z,101549.00
2018-09-17T12:59:55.219Z,101545.00
2018-09-17T13:02:24.078Z,101551.00
2018-09-17T13:04:52.946Z,101553.00
2018-09-17T13:07:21.782Z,101546.00
2018-09-17T13:09:50.627Z,101540.00
2018-09-17T13:12:19.481Z,101535.00
2018-09-17T13:14:48.373Z,101537.00
2018-09-17T13:17:17.137Z,101530.00
2018-09-17T13:19:46.195Z,101531.00
2018-09-17T13:22:15.016Z,101522.00
2018-09-17T13:24:43.860Z,101525.00
2018-09-17T13:27:12.694Z,101527.00
2018-09-17T13:29:41.550Z,101516.00
2018-09-17T13:32:10.403Z,101517.00
2018-09-17T13:34:39.603Z,101513.00
2018-09-17T13:37:08.462Z,101509.00
2018-09-17T13:39:38.071Z,101513.00
2018-09-17T13:42:07.155Z,101506.00
2018-09-17T13:44:36.109Z,101512.00
2018-09-17T13:47:04.849Z,101507.00
2018-09-17T13:49:33.677Z,101513.00
2018-09-17T13:52:09.716Z,101496.00
2018-09-17T13:54:38.526Z,101501.00
2018-09-17T13:57:07.357Z,101500.00
2018-09-17T13:59:36.214Z,101495.00
2018-09-17T14:02:05.708Z,101494.00
2018-09-17T14:04:34.672Z,101494.00
2018-09-17T14:07:03.407Z,101491.00
2018-09-17T14:09:32.441Z,101499.00
2018-09-17T14:12:01.242Z,101505.00
2018-09-17T14:14:30.149Z,101502.00
2018-09-17T14:16:58.955Z,101491.00
2018-09-17T14:19:27.876Z,101498.00
2018-09-17T14:21:56.684Z,101485.00
2018-09-17T14:24:26.004Z,101483.00
2018-09-17T14:26:54.945Z,101484.00
2018-09-17T14:29:23.746Z,101483.00
2018-09-17T14:31:57.963Z,101483.00
2018-09-17T14:34:26.769Z,101475.00
2018-09-17T14:36:55.565Z,101487.00
2018-09-17T14:39:24.849Z,101478.00
2018-09-17T14:41:53.684Z,101490.00
2018-09-17T14:44:22.504Z,101479.00
2018-09-17T14:46:51.775Z,101470.00
2018-09-17T14:49:20.646Z,101470.00
2018-09-17T14:51:49.498Z,101475.00
2018-09-17T14:54:18.609Z,101473.00
2018-09-17T14:56:47.429Z,101474.00
2018-09-17T14:59:16.318Z,101468.00
2018-09-17T15:01:45.244Z,101462.00
2018-09-17T15:04:14.033Z,101467.00
2018-09-17T15:06:42.807Z,101459.00
2018-09-17T15:09:12.097Z,101458.00
2018-09-17T15:11:40.898Z,101466.00
2018-09-17T15:14:10.384Z,101454.00
2018-09-17T15:16:39.292Z,101450.00
2018-09-17T15:19:08.145Z,101457.00
2018-09-17T15:21:37.004Z,101458.00
2018-09-17T15:24:05.989Z,101462.00
2018-09-17T15:26:34.777Z,101459.00
2018-09-17T15:29:03.582Z,101457.00
2018-09-17T15:31:33.050Z,101451.00
2018-09-17T15:34:01.941Z,101445.00
2018-09-17T15:36:30.710Z,101445.00
2018-09-17T15:38:59.566Z,101450.00
2018-09-17T15:41:28.532Z,101453.00
2018-09-17T15:43:57.208Z,101440.00
2018-09-17T15:46:26.031Z,101451.00
2018-09-17T15:48:54.846Z,101434.00
2018-09-17T15:51:23.742Z,101434.00
2018-09-17T15:53:52.970Z,101430.00
2018-09-17T15:56:22.389Z,101439.00
2018-09-17T15:58:51.210Z,101433.00
2018-09-17T16:01:20.051Z,101428.00
2018-09-17T16:03:48.874Z,101427.00
2018-09-17T16:06:17.718Z,101433.00
2018-09-17T16:08:46.640Z,101429.00
2018-09-17T16:11:15.413Z,101425.00
2018-09-17T16:13:44.224Z,101428.00
2018-09-17T16:16:13.372Z,101431.00
2018-09-17T16:18:42.237Z,101433.00
2018-09-17T16:21:11.118Z,101433.00
2018-09-17T16:23:39.991Z,101439.00
2018-09-17T16:26:08.881Z,101430.00
2018-09-17T16:28:37.720Z,101433.00
2018-09-17T16:31:06.618Z,101439.00
2018-09-17T16:33:35.512Z,101431.00
2018-09-17T16:36:04.296Z,101443.00
2018-09-17T16:38:33.485Z,101451.00
2018-09-17T16:41:02.286Z,101441.00
2018-09-17T16:43:31.118Z,101447.00
2018-09-17T16:45:59.933Z,101450.00
2018-09-17T16:48:28.922Z,101450.00
2018-09-17T16:50:57.753Z,101449.00
2018-09-17T16:53:26.656Z,101452.00
2018-09-17T16:55:55.427Z,101454.00
2018-09-17T16:58:24.758Z,101453.00
2018-09-17T17:00:54.034Z,101457.00
2018-09-17T17:03:22.856Z,101469.00
2018-09-17T17:05:51.661Z,101460.00
2018-09-17T17:08:20.458Z,101460.00
2018-09-17T17:10:49.347Z,101465.00
2018-09-17T17:13:18.136Z,101466.00
2018-09-17T17:15:48.561Z,101468.00
2018-09-17T17:18:19.238Z,101468.00
2018-09-17T17:20:48.101Z,101465.00
2018-09-17T17:23:17.433Z,101464.00
2018-09-17T17:25:46.278Z,101479.00
2018-09-17T17:28:15.185Z,101472.00
2018-09-17T17:30:44.041Z,101472.00
2018-09-17T17:33:12.920Z,101474.00
2018-09-17T17:35:41.898Z,101474.00
2018-09-17T17:38:10.758Z,101471.00
2018-09-17T17:40:39.700Z,101470.00
2018-09-17T17:43:08.394Z,101476.00
2018-09-17T17:45:37.643Z,101468.00
2018-09-17T17:48:06.676Z,101467.00
2018-09-17T17:50:35.465Z,101473.00
2018-09-17T17:53:04.271Z,101480.00
2018-09-17T17:55:33.111Z,101479.00
2018-09-17T17:58:01.962Z,101486.00
2018-09-17T18:00:31.128Z,101487.00
2018-09-17T18:02:59.941Z,101481.00
2018-09-17T18:05:28.789Z,101484.00
2018-09-17T18:07:58.127Z,101493.00
2018-09-17T18:10:26.967Z,101494.00
2018-09-17T18:12:55.826Z,101498.00
2018-09-17T18:15:25.060Z,101502.00
2018-09-17T18:17:53.876Z,101495.00
2018-09-17T18:20:22.691Z,101493.00
2018-09-17T18:22:51.565Z,101498.00
2018-09-17T18:25:20.405Z,101494.00
2018-09-17T18:27:49.230Z,101503.00
2018-09-17T18:30:18.513Z,101494.00
2018-09-17T18:32:47.354Z,101494.00
2018-09-17T18:35:19.183Z,101499.00
2018-09-17T18:37:47.983Z,101494.00
2018-09-17T18:40:16.789Z,101496.00
2018-09-17T18:42:45.722Z,101493.00
2018-09-17T18:45:14.526Z,101488.00
2018-09-17T18:47:43.306Z,101494.00
2018-09-17T18:50:12.623Z,101494.00
2018-09-17T18:52:41.442Z,101492.00
2018-09-17T18:55:10.259Z,101488.00
2018-09-17T18:57:39.076Z,101491.00
2018-09-17T19:00:09.398Z,101492.00
2018-09-17T19:02:38.798Z,101492.00
2018-09-17T19:05:08.935Z,101487.00
2018-09-17T19:07:37.767Z,101484.00
2018-09-17T19:10:07.741Z,101495.00
2018-09-17T19:12:39.888Z,101481.00
2018-09-17T19:15:14.147Z,101486.00
2018-09-17T19:17:43.231Z,101489.00
2018-09-17T19:20:12.665Z,101480.00
2018-09-17T19:22:46.923Z,101483.00
2018-09-17T19:25:16.329Z,101482.00
2018-09-17T19:27:51.172Z,101483.00
2018-09-17T19:30:20.039Z,101477.00
2018-09-17T19:32:48.778Z,101480.00
2018-09-17T19:35:17.606Z,101481.00
2018-09-17T19:38:49.336Z,101480.00
2018-09-17T19:41:18.202Z,101482.00
2018-09-17T19:43:47.055Z,101475.00
2018-09-17T19:46:17.583Z,101468.00
2018-09-17T19:48:46.885Z,101476.00
2018-09-17T19:51:21.050Z,101468.00
2018-09-17T19:53:49.927Z,101472.00
2018-09-17T19:56:18.760Z,101463.00
2018-09-17T19:58:53.059Z,101460.00
2018-09-17T20:01:21.888Z,101464.00
2018-09-17T20:03:51.208Z,101458.00
2018-09-17T20:06:24.328Z,101461.00
2018-09-17T20:08:53.103Z,101460.00
2018-09-17T20:11:21.906Z,101461.00
2018-09-17T20:13:50.744Z,101466.00
2018-09-17T20:16:19.712Z,101458.00
2018-09-17T20:18:48.647Z,101464.00
2018-09-17T20:21:17.493Z,101464.00
2018-09-17T20:23:46.290Z,101471.00
2018-09-17T20:26:15.116Z,101462.00
2018-09-17T20:28:44.407Z,101463.00
2018-09-17T20:31:13.223Z,101456.00
2018-09-17T20:33:42.035Z,101461.00
2018-09-17T20:36:10.883Z,101460.00
2018-09-17T20:38:39.730Z,101461.00
2018-09-17T20:41:08.517Z,101459.00
2018-09-17T20:43:37.370Z,101412.00
2018-09-17T20:46:06.215Z,101448.00
2018-09-17T20:48:35.079Z,101454.00
2018-09-17T20:51:04.360Z,101455.00
2018-09-17T20:53:33.152Z,101444.00
2018-09-17T20:56:02.031Z,101456.00
2018-09-17T20:58:30.870Z,101447.00
2018-09-17T21:00:59.709Z,101443.00
2018-09-17T21:03:28.485Z,101443.00
2018-09-17T21:05:57.757Z,101450.00
2018-09-17T21:08:26.573Z,101444.00
2018-09-17T21:10:55.388Z,101449.00
2018-09-17T21:13:24.559Z,101450.00
2018-09-17T21:15:53.367Z,101438.00
2018-09-17T21:18:22.186Z,101456.00
2018-09-17T21:20:51.005Z,101457.00
2018-09-17T21:23:19.826Z,101455.00
2018-09-17T21:25:48.654Z,101453.00
2018-09-17T21:28:17.496Z,101446.00
2018-09-17T21:30:46.404Z,101460.00
2018-09-17T21:33:15.239Z,101450.00
2018-09-17T21:35:44.254Z,101450.00
2018-09-17T21:38:19.895Z,101446.00
2018-09-17T21:40:48.792Z,101446.00
2018-09-17T21:43:17.581Z,101444.00
2018-09-17T21:45:46.362Z,101453.00
2018-09-17T21:48:15.214Z,101447.00
2018-09-17T21:50:44.036Z,101445.00
2018-09-17T21:53:12.836Z,101442.00
2018-09-17T21:55:42.246Z,101439.00
2018-09-17T21:58:14.096Z,101435.00
2018-09-17T22:00:48.303Z,101439.00
2018-09-17T22:03:17.130Z,101438.00
2018-09-17T22:05:45.965Z,101437.00
2018-09-17T22:08:15.138Z,101436.00
2018-09-17T22:10:43.959Z,101433.00
2018-09-17T22:13:12.779Z,101433.00
2018-09-17T22:15:41.718Z,101431.00
2018-09-17T22:18:10.518Z,101431.00
2018-09-17T22:20:39.335Z,101426.00
2018-09-17T22:23:08.159Z,101430.00
2018-09-17T22:25:36.983Z,101435.00
2018-09-17T22:28:05.789Z,101432.00
2018-09-17T22:30:34.617Z,101423.00
2018-09-17T22:33:03.429Z,101431.00
2018-09-17T22:35:32.262Z,101429.00
2018-09-17T22:38:01.278Z,101436.00
2018-09-17T22:40:30.085Z,101433.00
2018-09-17T22:42:58.890Z,101429.00
2018-09-17T22:45:27.724Z,101438.00
2018-09-17T22:47:56.519Z,101428.00
2018-09-17T22:50:25.326Z,101434.00
2018-09-17T22:52:54.135Z,101423.00
2018-09-17T22:55:22.963Z,101432.00
2018-09-17T22:57:51.792Z,101432.00
2018-09-17T23:00:20.885Z,101436.00
2018-09-17T23:02:49.730Z,101415.00
2018-09-17T23:05:18.545Z,101425.00
2018-09-17T23:07:47.588Z,101429.00
2018-09-17T23:10:16.987Z,101417.00
2018-09-17T23:12:45.942Z,101419.00
2018-09-17T23:15:14.751Z,101417.00
2018-09-17T23:17:43.561Z,101423.00
2018-09-17T23:20:12.396Z,101418.00
2018-09-17T23:22:41.526Z,101419.00
2018-09-17T23:25:10.384Z,101416.00
2018-09-17T23:27:39.232Z,101407.00
2018-09-17T23:30:09.002Z,101413.00
2018-09-17T23:32:37.822Z,101418.00
2018-09-17T23:35:08.091Z,101416.00
2018-09-17T23:37:36.903Z,101414.00
2018-09-17T23:40:05.776Z,101410.00
2018-09-17T23:42:34.576Z,101415.00
2018-09-17T23:45:03.826Z,101409.00
2018-09-17T23:47:32.653Z,101403.00
2018-09-17T23:50:01.474Z,101412.00
2018-09-17T23:52:30.288Z,101407.00
2018-09-17T23:54:59.085Z,101413.00
2018-09-17T23:57:34.387Z,101404.00
